createdAt,value
2016-05-31T00:00:08.953Z,999.2
2016-05-31T00:00:18.953Z,999.2
2016-05-31T00:00:29.140Z,999.2
2016-05-31T00:00:38.984Z,999.2
2016-05-31T00:00:48.814Z,999.2
2016-05-31T00:00:59.142Z,999.2
2016-05-31T00:01:09.142Z,999.1
2016-05-31T00:01:19.158Z,999.2
2016-05-31T00:01:28.830Z,999.2
2016-05-31T00:01:39.002Z,999.2
2016-05-31T00:01:49.177Z,999.1
2016-05-31T00:01:59.020Z,999.2
2016-05-31T00:02:09.020Z,999.1
2016-05-31T00:02:19.177Z,999.2
2016-05-31T00:02:29.177Z,999.1
2016-05-31T00:02:39.192Z,999.1
2016-05-31T00:02:49.195Z,999.2
2016-05-31T00:02:58.898Z,999.2
2016-05-31T00:03:09.211Z,999.2
2016-05-31T00:03:19.211Z,999.2
2016-05-31T00:03:29.055Z,999.1
2016-05-31T00:03:39.227Z,999.2
2016-05-31T00:03:49.229Z,999.2
2016-05-31T00:03:59.072Z,999.3
2016-05-31T00:04:09.260Z,999.2
2016-05-31T00:04:19.244Z,999.2
2016-05-31T00:04:28.932Z,999.2
2016-05-31T00:04:39.244Z,999.2
2016-05-31T00:04:49.263Z,999.2
2016-05-31T00:04:59.263Z,999.2
2016-05-31T00:05:09.263Z,999.3
2016-05-31T00:05:19.263Z,999.2
2016-05-31T00:05:29.122Z,999.2
2016-05-31T00:05:39.278Z,999.2
2016-05-31T00:05:49.125Z,999.1
2016-05-31T00:05:59.297Z,999.2
2016-05-31T00:06:09.297Z,999.2
2016-05-31T00:06:19.297Z,999.2
2016-05-31T00:06:29.297Z,999.2
2016-05-31T00:06:39.297Z,999.2
2016-05-31T00:06:49.330Z,999.2
2016-05-31T00:06:59.315Z,999.2
2016-05-31T00:07:09.330Z,999.2
2016-05-31T00:07:19.424Z,999.2
2016-05-31T00:07:29.205Z,999.2
2016-05-31T00:07:39.377Z,999.2
2016-05-31T00:07:49.458Z,999.2
2016-05-31T00:08:01.286Z,999.2
2016-05-31T00:08:09.286Z,999.2
2016-05-31T00:08:19.208Z,999.3
2016-05-31T00:08:30.161Z,999.2
2016-05-31T00:08:39.380Z,999.2
2016-05-31T00:08:49.399Z,999.3
2016-05-31T00:08:59.243Z,999.2
2016-05-31T00:09:09.414Z,999.2
2016-05-31T00:09:19.243Z,999.2
2016-05-31T00:09:29.383Z,999.2
2016-05-31T00:09:39.430Z,999.2
2016-05-31T00:09:49.417Z,999.2
2016-05-31T00:09:59.417Z,999.2
2016-05-31T00:10:09.433Z,999.2
2016-05-31T00:10:19.417Z,999.2
2016-05-31T00:10:29.433Z,999.2
2016-05-31T00:10:39.433Z,999.2
2016-05-31T00:10:49.451Z,999.2
2016-05-31T00:10:59.451Z,999.2
2016-05-31T00:11:09.451Z,999.2
2016-05-31T00:11:19.482Z,999.2
2016-05-31T00:11:29.451Z,999.2
2016-05-31T00:11:39.310Z,999.3
2016-05-31T00:11:49.313Z,999.2
2016-05-31T00:11:59.485Z,999.2
2016-05-31T00:12:09.485Z,999.3
2016-05-31T00:12:19.360Z,999.2
2016-05-31T00:12:29.501Z,999.2
2016-05-31T00:12:39.485Z,999.2
2016-05-31T00:12:49.346Z,999.2
2016-05-31T00:12:59.534Z,999.2
2016-05-31T00:13:09.534Z,999.2
2016-05-31T00:13:19.518Z,999.2
2016-05-31T00:13:29.518Z,999.2
2016-05-31T00:13:39.534Z,999.2
2016-05-31T00:13:49.537Z,999.2
2016-05-31T00:13:59.537Z,999.2
2016-05-31T00:14:09.537Z,999.2
2016-05-31T00:14:19.552Z,999.2
2016-05-31T00:14:29.396Z,999.2
2016-05-31T00:14:39.552Z,999.2
2016-05-31T00:14:49.555Z,999.2
2016-05-31T00:14:59.555Z,999.3
2016-05-31T00:15:09.571Z,999.3
2016-05-31T00:15:19.571Z,999.3
2016-05-31T00:15:29.430Z,999.3
2016-05-31T00:15:39.587Z,999.3
2016-05-31T00:15:49.605Z,999.3
2016-05-31T00:15:59.590Z,999.3
2016-05-31T00:16:09.621Z,999.3
2016-05-31T00:16:19.605Z,999.3
2016-05-31T00:16:29.465Z,999.3
2016-05-31T00:16:39.621Z,999.3
2016-05-31T00:16:49.467Z,999.3
2016-05-31T00:16:59.639Z,999.3
2016-05-31T00:17:09.639Z,999.3
2016-05-31T00:17:19.639Z,999.3
2016-05-31T00:17:29.654Z,999.3
2016-05-31T00:17:39.498Z,999.3
2016-05-31T00:17:49.672Z,999.3
2016-05-31T00:17:59.359Z,999.3
2016-05-31T00:18:09.672Z,999.3
2016-05-31T00:18:19.672Z,999.3
2016-05-31T00:18:29.516Z,999.3
2016-05-31T00:18:39.672Z,999.3
2016-05-31T00:18:49.691Z,999.3
2016-05-31T00:18:59.535Z,999.3
2016-05-31T00:19:09.691Z,999.3
2016-05-31T00:19:19.535Z,999.3
2016-05-31T00:19:29.707Z,999.3
2016-05-31T00:19:39.707Z,999.3
2016-05-31T00:19:49.726Z,999.3
2016-05-31T00:19:59.726Z,999.3
2016-05-31T00:20:09.726Z,999.3
2016-05-31T00:20:19.569Z,999.3
2016-05-31T00:20:29.741Z,999.3
2016-05-31T00:20:39.741Z,999.3
2016-05-31T00:20:49.743Z,999.3
2016-05-31T00:20:59.759Z,999.3
2016-05-31T00:21:09.759Z,999.3
2016-05-31T00:21:19.759Z,999.3
2016-05-31T00:21:29.759Z,999.2
2016-05-31T00:21:39.775Z,999.3
2016-05-31T00:21:49.464Z,999.3
2016-05-31T00:21:59.792Z,999.3
2016-05-31T00:22:09.792Z,999.3
2016-05-31T00:22:20.308Z,999.3
2016-05-31T00:22:30.308Z,999.3
2016-05-31T00:22:40.120Z,999.3
2016-05-31T00:22:49.670Z,999.3
2016-05-31T00:22:59.686Z,999.3
2016-05-31T00:23:10.201Z,999.3
2016-05-31T00:23:20.155Z,999.3
2016-05-31T00:23:29.561Z,999.3
2016-05-31T00:23:39.826Z,999.3
2016-05-31T00:23:49.719Z,999.3
2016-05-31T00:23:59.844Z,999.3
2016-05-31T00:24:09.844Z,999.3
2016-05-31T00:24:19.860Z,999.3
2016-05-31T00:24:29.860Z,999.3
2016-05-31T00:24:39.860Z,999.3
2016-05-31T00:24:49.864Z,999.3
2016-05-31T00:24:59.723Z,999.3
2016-05-31T00:25:09.879Z,999.3
2016-05-31T00:25:19.879Z,999.3
2016-05-31T00:25:29.739Z,999.3
2016-05-31T00:25:39.911Z,999.3
2016-05-31T00:25:49.913Z,999.3
2016-05-31T00:25:59.897Z,999.3
2016-05-31T00:26:09.756Z,999.3
2016-05-31T00:26:19.756Z,999.3
2016-05-31T00:26:29.913Z,999.3
2016-05-31T00:26:39.772Z,999.3
2016-05-31T00:26:49.931Z,999.3
2016-05-31T00:26:59.931Z,999.3
2016-05-31T00:27:09.931Z,999.3
2016-05-31T00:27:19.791Z,999.3
2016-05-31T00:27:29.947Z,999.3
2016-05-31T00:27:39.962Z,999.3
2016-05-31T00:27:49.964Z,999.3
2016-05-31T00:27:59.980Z,999.3
2016-05-31T00:28:09.980Z,999.3
2016-05-31T00:28:19.824Z,999.3
2016-05-31T00:28:29.980Z,999.3
2016-05-31T00:28:39.839Z,999.3
2016-05-31T00:28:49.828Z,999.3
2016-05-31T00:29:00.000Z,999.3
2016-05-31T00:29:10.000Z,999.3
2016-05-31T00:29:20.000Z,999.3
2016-05-31T00:29:30.031Z,999.3
2016-05-31T00:29:40.015Z,999.3
2016-05-31T00:29:49.720Z,999.3
2016-05-31T00:30:00.033Z,999.3
2016-05-31T00:30:10.033Z,999.3
2016-05-31T00:30:19.892Z,999.3
2016-05-31T00:30:30.049Z,999.3
2016-05-31T00:30:39.908Z,999.3
2016-05-31T00:30:50.052Z,999.3
2016-05-31T00:30:59.911Z,999.3
2016-05-31T00:31:10.067Z,999.3
2016-05-31T00:31:19.911Z,999.3
2016-05-31T00:31:30.067Z,999.3
2016-05-31T00:31:40.067Z,999.3
2016-05-31T00:31:49.929Z,999.3
2016-05-31T00:32:00.100Z,999.3
2016-05-31T00:32:10.100Z,999.2
2016-05-31T00:32:20.100Z,999.3
2016-05-31T00:32:29.944Z,999.3
2016-05-31T00:32:40.100Z,999.3
2016-05-31T00:32:50.103Z,999.3
2016-05-31T00:33:00.135Z,999.3
2016-05-31T00:33:09.963Z,999.3
2016-05-31T00:33:20.119Z,999.3
2016-05-31T00:33:30.135Z,999.3
2016-05-31T00:33:40.150Z,999.3
2016-05-31T00:33:50.153Z,999.3
2016-05-31T00:33:59.981Z,999.3
2016-05-31T00:34:10.153Z,999.3
2016-05-31T00:34:20.153Z,999.3
2016-05-31T00:34:29.856Z,999.3
2016-05-31T00:34:40.169Z,999.3
2016-05-31T00:34:50.016Z,999.3
2016-05-31T00:35:00.031Z,999.3
2016-05-31T00:35:10.188Z,999.3
2016-05-31T00:35:20.031Z,999.3
2016-05-31T00:35:30.031Z,999.3
2016-05-31T00:35:40.188Z,999.3
2016-05-31T00:35:50.205Z,999.3
2016-05-31T00:36:00.205Z,999.3
2016-05-31T00:36:10.065Z,999.3
2016-05-31T00:36:20.221Z,999.2
2016-05-31T00:36:30.080Z,999.3
2016-05-31T00:36:40.221Z,999.3
2016-05-31T00:36:50.224Z,999.3
2016-05-31T00:37:00.255Z,999.3
2016-05-31T00:37:10.239Z,999.3
2016-05-31T00:37:20.786Z,999.3
2016-05-31T00:37:30.099Z,999.3
2016-05-31T00:37:40.989Z,999.3
2016-05-31T00:37:50.788Z,999.3
2016-05-31T00:38:00.148Z,999.3
2016-05-31T00:38:10.132Z,999.3
2016-05-31T00:38:20.288Z,999.3
2016-05-31T00:38:30.726Z,999.3
2016-05-31T00:38:40.132Z,999.3
2016-05-31T00:38:50.308Z,999.3
2016-05-31T00:39:00.136Z,999.3
2016-05-31T00:39:10.308Z,999.3
2016-05-31T00:39:20.324Z,999.3
2016-05-31T00:39:30.324Z,999.3
2016-05-31T00:39:40.324Z,999.3
2016-05-31T00:39:50.169Z,999.3
2016-05-31T00:40:00.185Z,999.3
2016-05-31T00:40:10.201Z,999.3
2016-05-31T00:40:20.341Z,999.3
2016-05-31T00:40:30.185Z,999.3
2016-05-31T00:40:40.341Z,999.3
2016-05-31T00:40:50.359Z,999.3
2016-05-31T00:41:00.374Z,999.3
2016-05-31T00:41:10.359Z,999.3
2016-05-31T00:41:20.218Z,999.3
2016-05-31T00:41:30.218Z,999.3
2016-05-31T00:41:40.374Z,999.3
2016-05-31T00:41:50.377Z,999.3
2016-05-31T00:42:00.393Z,999.3
2016-05-31T00:42:10.409Z,999.3
2016-05-31T00:42:20.409Z,999.3
2016-05-31T00:42:30.409Z,999.3
2016-05-31T00:42:40.409Z,999.3
2016-05-31T00:42:50.412Z,999.3
2016-05-31T00:43:00.427Z,999.3
2016-05-31T00:43:10.271Z,999.3
2016-05-31T00:43:20.271Z,999.3
2016-05-31T00:43:30.287Z,999.3
2016-05-31T00:43:40.287Z,999.3
2016-05-31T00:43:50.462Z,999.3
2016-05-31T00:44:00.305Z,999.4
2016-05-31T00:44:10.305Z,999.3
2016-05-31T00:44:20.477Z,999.3
2016-05-31T00:44:30.462Z,999.4
2016-05-31T00:44:40.462Z,999.4
2016-05-31T00:44:50.479Z,999.3
2016-05-31T00:45:00.479Z,999.3
2016-05-31T00:45:10.479Z,999.4
2016-05-31T00:45:20.339Z,999.3
2016-05-31T00:45:30.495Z,999.3
2016-05-31T00:45:40.510Z,999.3
2016-05-31T00:45:50.498Z,999.3
2016-05-31T00:46:00.513Z,999.4
2016-05-31T00:46:10.513Z,999.3
2016-05-31T00:46:20.513Z,999.3
2016-05-31T00:46:30.373Z,999.3
2016-05-31T00:46:40.529Z,999.4
2016-05-31T00:46:50.548Z,999.4
2016-05-31T00:47:00.548Z,999.4
2016-05-31T00:47:10.391Z,999.3
2016-05-31T00:47:20.548Z,999.3
2016-05-31T00:47:30.548Z,999.3
2016-05-31T00:47:40.579Z,999.3
2016-05-31T00:47:50.582Z,999.4
2016-05-31T00:48:00.582Z,999.3
2016-05-31T00:48:10.582Z,999.3
2016-05-31T00:48:20.582Z,999.4
2016-05-31T00:48:30.598Z,999.3
2016-05-31T00:48:40.441Z,999.3
2016-05-31T00:48:50.601Z,999.3
2016-05-31T00:49:00.601Z,999.3
2016-05-31T00:49:10.616Z,999.3
2016-05-31T00:49:20.616Z,999.3
2016-05-31T00:49:30.476Z,999.3
2016-05-31T00:49:40.476Z,999.3
2016-05-31T00:49:50.634Z,999.3
2016-05-31T00:50:00.634Z,999.3
2016-05-31T00:50:10.634Z,999.3
2016-05-31T00:50:20.649Z,999.3
2016-05-31T00:50:30.493Z,999.4
2016-05-31T00:50:40.493Z,999.3
2016-05-31T00:50:50.355Z,999.3
2016-05-31T00:51:00.667Z,999.3
2016-05-31T00:51:10.526Z,999.3
2016-05-31T00:51:20.698Z,999.3
2016-05-31T00:51:30.683Z,999.4
2016-05-31T00:51:40.683Z,999.3
2016-05-31T00:51:50.546Z,999.3
2016-05-31T00:52:00.702Z,999.4
2016-05-31T00:52:10.702Z,999.3
2016-05-31T00:52:21.749Z,999.3
2016-05-31T00:52:30.999Z,999.3
2016-05-31T00:52:40.718Z,999.4
2016-05-31T00:52:50.392Z,999.4
2016-05-31T00:53:00.423Z,999.3
2016-05-31T00:53:10.970Z,999.3
2016-05-31T00:53:20.814Z,999.4
2016-05-31T00:53:30.751Z,999.4
2016-05-31T00:53:40.751Z,999.3
2016-05-31T00:53:50.598Z,999.4
2016-05-31T00:54:00.770Z,999.4
2016-05-31T00:54:10.614Z,999.3
2016-05-31T00:54:20.457Z,999.4
2016-05-31T00:54:30.629Z,999.4
2016-05-31T00:54:40.785Z,999.4
2016-05-31T00:54:50.787Z,999.4
2016-05-31T00:55:00.803Z,999.4
2016-05-31T00:55:10.631Z,999.4
2016-05-31T00:55:20.803Z,999.4
2016-05-31T00:55:30.819Z,999.4
2016-05-31T00:55:40.819Z,999.4
2016-05-31T00:55:50.822Z,999.4
2016-05-31T00:56:00.665Z,999.4
2016-05-31T00:56:10.822Z,999.4
2016-05-31T00:56:20.822Z,999.4
2016-05-31T00:56:30.681Z,999.4
2016-05-31T00:56:40.681Z,999.4
2016-05-31T00:56:50.840Z,999.4
2016-05-31T00:57:00.840Z,999.4
2016-05-31T00:57:10.856Z,999.4
2016-05-31T00:57:20.856Z,999.4
2016-05-31T00:57:30.856Z,999.4
2016-05-31T00:57:40.872Z,999.4
2016-05-31T00:57:50.874Z,999.5
2016-05-31T00:58:00.889Z,999.4
2016-05-31T00:58:10.733Z,999.4
2016-05-31T00:58:20.889Z,999.4
2016-05-31T00:58:30.889Z,999.5
2016-05-31T00:58:40.905Z,999.5
2016-05-31T00:58:50.908Z,999.5
2016-05-31T00:59:00.923Z,999.5
2016-05-31T00:59:10.767Z,999.5
2016-05-31T00:59:20.923Z,999.5
2016-05-31T00:59:30.767Z,999.5
2016-05-31T00:59:40.923Z,999.4
2016-05-31T00:59:50.942Z,999.4
2016-05-31T01:00:00.942Z,999.4
2016-05-31T01:00:10.942Z,999.5
2016-05-31T01:00:20.958Z,999.4
2016-05-31T01:00:30.958Z,999.5
2016-05-31T01:00:40.801Z,999.4
2016-05-31T01:00:50.960Z,999.5
2016-05-31T01:01:01.007Z,999.5
2016-05-31T01:01:10.678Z,999.5
2016-05-31T01:01:20.975Z,999.4
2016-05-31T01:01:30.991Z,999.4
2016-05-31T01:01:40.991Z,999.4
2016-05-31T01:01:50.994Z,999.5
2016-05-31T01:02:00.994Z,999.5
2016-05-31T01:02:11.010Z,999.4
2016-05-31T01:02:21.025Z,999.5
2016-05-31T01:02:31.010Z,999.4
2016-05-31T01:02:40.853Z,999.4
2016-05-31T01:02:51.028Z,999.4
2016-05-31T01:03:01.044Z,999.4
2016-05-31T01:03:10.888Z,999.4
2016-05-31T01:03:21.044Z,999.4
2016-05-31T01:03:31.044Z,999.4
2016-05-31T01:03:40.903Z,999.4
2016-05-31T01:03:51.062Z,999.4
2016-05-31T01:04:00.906Z,999.4
2016-05-31T01:04:10.906Z,999.3
2016-05-31T01:04:21.062Z,999.4
2016-05-31T01:04:31.078Z,999.4
2016-05-31T01:04:41.094Z,999.4
2016-05-31T01:04:51.096Z,999.4
2016-05-31T01:05:01.111Z,999.4
2016-05-31T01:05:10.955Z,999.4
2016-05-31T01:05:21.111Z,999.4
2016-05-31T01:05:30.955Z,999.4
2016-05-31T01:05:41.127Z,999.4
2016-05-31T01:05:51.114Z,999.4
2016-05-31T01:06:01.114Z,999.4
2016-05-31T01:06:10.974Z,999.4
2016-05-31T01:06:21.146Z,999.4
2016-05-31T01:06:31.146Z,999.4
2016-05-31T01:06:41.005Z,999.4
2016-05-31T01:06:51.149Z,999.4
2016-05-31T01:07:01.149Z,999.4
2016-05-31T01:07:11.180Z,999.4
2016-05-31T01:07:20.867Z,999.4
2016-05-31T01:07:31.289Z,999.4
2016-05-31T01:07:41.024Z,999.4
2016-05-31T01:07:51.322Z,999.4
2016-05-31T01:08:02.244Z,999.4
2016-05-31T01:08:12.088Z,999.5
2016-05-31T01:08:21.197Z,999.5
2016-05-31T01:08:31.213Z,999.5
2016-05-31T01:08:41.057Z,999.5
2016-05-31T01:08:51.216Z,999.4
2016-05-31T01:09:01.060Z,999.5
2016-05-31T01:09:11.232Z,999.5
2016-05-31T01:09:21.232Z,999.5
2016-05-31T01:09:31.075Z,999.5
2016-05-31T01:09:41.232Z,999.5
2016-05-31T01:09:51.235Z,999.5
2016-05-31T01:10:01.250Z,999.5
2016-05-31T01:10:11.094Z,999.5
2016-05-31T01:10:21.250Z,999.5
2016-05-31T01:10:31.250Z,999.5
2016-05-31T01:10:41.110Z,999.5
2016-05-31T01:10:51.112Z,999.5
2016-05-31T01:11:01.284Z,999.5
2016-05-31T01:11:11.127Z,999.5
2016-05-31T01:11:21.284Z,999.5
2016-05-31T01:11:31.299Z,999.5
2016-05-31T01:11:41.299Z,999.5
2016-05-31T01:11:51.302Z,999.5
2016-05-31T01:12:01.302Z,999.6
2016-05-31T01:12:11.333Z,999.5
2016-05-31T01:12:21.162Z,999.5
2016-05-31T01:12:31.318Z,999.5
2016-05-31T01:12:41.177Z,999.5
2016-05-31T01:12:51.180Z,999.5
2016-05-31T01:13:01.336Z,999.5
2016-05-31T01:13:11.336Z,999.5
2016-05-31T01:13:21.352Z,999.5
2016-05-31T01:13:31.352Z,999.6
2016-05-31T01:13:41.352Z,999.5
2016-05-31T01:13:51.354Z,999.5
2016-05-31T01:14:01.370Z,999.5
2016-05-31T01:14:11.385Z,999.5
2016-05-31T01:14:21.385Z,999.6
2016-05-31T01:14:31.385Z,999.6
2016-05-31T01:14:41.229Z,999.5
2016-05-31T01:14:51.388Z,999.6
2016-05-31T01:15:01.404Z,999.6
2016-05-31T01:15:11.404Z,999.6
2016-05-31T01:15:21.420Z,999.6
2016-05-31T01:15:31.420Z,999.5
2016-05-31T01:15:41.404Z,999.5
2016-05-31T01:15:51.266Z,999.5
2016-05-31T01:16:01.282Z,999.5
2016-05-31T01:16:11.266Z,999.5
2016-05-31T01:16:21.298Z,999.5
2016-05-31T01:16:31.438Z,999.5
2016-05-31T01:16:41.438Z,999.5
2016-05-31T01:16:51.456Z,999.5
2016-05-31T01:17:01.456Z,999.5
2016-05-31T01:17:11.456Z,999.5
2016-05-31T01:17:21.471Z,999.5
2016-05-31T01:17:31.456Z,999.5
2016-05-31T01:17:41.487Z,999.5
2016-05-31T01:17:51.506Z,999.5
2016-05-31T01:18:01.474Z,999.5
2016-05-31T01:18:11.490Z,999.5
2016-05-31T01:18:21.490Z,999.5
2016-05-31T01:18:31.506Z,999.5
2016-05-31T01:18:41.506Z,999.5
2016-05-31T01:18:51.509Z,999.5
2016-05-31T01:19:01.509Z,999.5
2016-05-31T01:19:11.524Z,999.5
2016-05-31T01:19:21.524Z,999.5
2016-05-31T01:19:31.524Z,999.5
2016-05-31T01:19:41.540Z,999.5
2016-05-31T01:19:51.542Z,999.5
2016-05-31T01:20:01.401Z,999.5
2016-05-31T01:20:16.776Z,999.5
2016-05-31T01:20:26.698Z,999.5
2016-05-31T01:20:36.683Z,999.6
2016-05-31T01:20:46.698Z,999.5
2016-05-31T01:20:56.717Z,999.6
2016-05-31T01:21:06.732Z,999.6
2016-05-31T01:21:16.717Z,999.6
2016-05-31T01:21:26.732Z,999.5
2016-05-31T01:21:36.732Z,999.6
2016-05-31T01:21:46.732Z,999.6
2016-05-31T01:21:56.735Z,999.6
2016-05-31T01:22:06.735Z,999.6
2016-05-31T01:22:16.954Z,999.5
2016-05-31T01:22:32.829Z,999.6
2016-05-31T01:22:37.814Z,999.6
2016-05-31T01:22:48.110Z,999.6
2016-05-31T01:22:58.191Z,999.5
2016-05-31T01:23:07.987Z,999.6
2016-05-31T01:23:18.316Z,999.6
2016-05-31T01:23:29.347Z,999.6
2016-05-31T01:23:38.206Z,999.6
2016-05-31T01:23:48.331Z,999.6
2016-05-31T01:23:58.148Z,999.6
2016-05-31T01:24:08.163Z,999.6
2016-05-31T01:24:18.007Z,999.6
2016-05-31T01:24:28.757Z,999.6
2016-05-31T01:24:38.179Z,999.5
2016-05-31T01:24:47.991Z,999.6
2016-05-31T01:24:58.212Z,999.6
2016-05-31T01:25:08.243Z,999.5
2016-05-31T01:25:18.072Z,999.6
2016-05-31T01:25:28.197Z,999.6
2016-05-31T01:25:38.290Z,999.6
2016-05-31T01:25:48.947Z,999.5
2016-05-31T01:25:58.231Z,999.6
2016-05-31T01:26:08.231Z,999.6
2016-05-31T01:26:18.325Z,999.5
2016-05-31T01:26:28.231Z,999.6
2016-05-31T01:26:38.075Z,999.6
2016-05-31T01:26:48.231Z,999.6
2016-05-31T01:26:58.248Z,999.5
2016-05-31T01:27:08.780Z,999.6
2016-05-31T01:27:18.764Z,999.5
2016-05-31T01:27:28.248Z,999.6
2016-05-31T01:27:38.248Z,999.6
2016-05-31T01:27:48.264Z,999.6
2016-05-31T01:27:58.111Z,999.6
2016-05-31T01:28:08.298Z,999.5
2016-05-31T01:28:18.283Z,999.5
2016-05-31T01:28:28.126Z,999.5
2016-05-31T01:28:38.283Z,999.5
2016-05-31T01:28:48.126Z,999.6
2016-05-31T01:28:58.129Z,999.6
2016-05-31T01:29:08.301Z,999.5
2016-05-31T01:29:18.301Z,999.6
2016-05-31T01:29:28.301Z,999.6
2016-05-31T01:29:38.161Z,999.6
2016-05-31T01:29:48.176Z,999.6
2016-05-31T01:29:58.179Z,999.6
2016-05-31T01:30:08.336Z,999.6
2016-05-31T01:30:18.336Z,999.6
2016-05-31T01:30:28.336Z,999.6
2016-05-31T01:30:38.351Z,999.6
2016-05-31T01:30:48.195Z,999.6
2016-05-31T01:30:58.353Z,999.6
2016-05-31T01:31:08.369Z,999.5
2016-05-31T01:31:18.369Z,999.5
2016-05-31T01:31:28.228Z,999.6
2016-05-31T01:31:38.228Z,999.6
2016-05-31T01:31:48.369Z,999.6
2016-05-31T01:31:58.387Z,999.6
2016-05-31T01:32:08.387Z,999.6
2016-05-31T01:32:18.231Z,999.6
2016-05-31T01:32:28.403Z,999.6
2016-05-31T01:32:38.387Z,999.6
2016-05-31T01:32:48.403Z,999.6
2016-05-31T01:32:58.405Z,999.6
2016-05-31T01:33:08.421Z,999.6
2016-05-31T01:33:18.421Z,999.6
2016-05-31T01:33:28.421Z,999.6
2016-05-31T01:33:38.280Z,999.6
2016-05-31T01:33:48.280Z,999.6
2016-05-31T01:33:58.456Z,999.6
2016-05-31T01:34:08.300Z,999.6
2016-05-31T01:34:18.315Z,999.6
2016-05-31T01:34:28.456Z,999.6
2016-05-31T01:34:38.456Z,999.5
2016-05-31T01:34:48.472Z,999.6
2016-05-31T01:34:58.489Z,999.6
2016-05-31T01:35:08.333Z,999.6
2016-05-31T01:35:18.474Z,999.5
2016-05-31T01:35:28.349Z,999.6
2016-05-31T01:35:38.505Z,999.6
2016-05-31T01:35:48.333Z,999.5
2016-05-31T01:35:58.366Z,999.6
2016-05-31T01:36:08.507Z,999.6
2016-05-31T01:36:18.351Z,999.6
2016-05-31T01:36:28.507Z,999.6
2016-05-31T01:36:38.226Z,999.6
2016-05-31T01:36:48.366Z,999.6
2016-05-31T01:36:58.370Z,999.6
2016-05-31T01:37:08.386Z,999.6
2016-05-31T01:37:18.401Z,999.6
2016-05-31T01:37:28.558Z,999.6
2016-05-31T01:37:39.026Z,999.6
2016-05-31T01:37:48.401Z,999.6
2016-05-31T01:37:59.169Z,999.6
2016-05-31T01:38:08.419Z,999.6
2016-05-31T01:38:19.513Z,999.6
2016-05-31T01:38:28.528Z,999.6
2016-05-31T01:38:38.700Z,999.6
2016-05-31T01:38:48.607Z,999.6
2016-05-31T01:38:58.594Z,999.6
2016-05-31T01:39:08.438Z,999.6
2016-05-31T01:39:18.594Z,999.6
2016-05-31T01:39:28.313Z,999.6
2016-05-31T01:39:38.610Z,999.6
2016-05-31T01:39:48.469Z,999.6
2016-05-31T01:39:58.627Z,999.6
2016-05-31T01:40:08.627Z,999.6
2016-05-31T01:40:18.330Z,999.6
2016-05-31T01:40:28.643Z,999.6
2016-05-31T01:40:38.643Z,999.6
2016-05-31T01:40:48.502Z,999.7
2016-05-31T01:40:58.661Z,999.6
2016-05-31T01:41:08.661Z,999.6
2016-05-31T01:41:18.693Z,999.6
2016-05-31T01:41:28.661Z,999.6
2016-05-31T01:41:38.677Z,999.6
2016-05-31T01:41:48.677Z,999.6
2016-05-31T01:41:58.695Z,999.6
2016-05-31T01:42:08.695Z,999.7
2016-05-31T01:42:18.695Z,999.6
2016-05-31T01:42:28.726Z,999.7
2016-05-31T01:42:38.695Z,999.6
2016-05-31T01:42:48.554Z,999.7
2016-05-31T01:42:58.745Z,999.7
2016-05-31T01:43:08.729Z,999.7
2016-05-31T01:43:18.573Z,999.7
2016-05-31T01:43:28.604Z,999.7
2016-05-31T01:43:38.729Z,999.6
2016-05-31T01:43:48.745Z,999.7
2016-05-31T01:43:58.748Z,999.7
2016-05-31T01:44:08.591Z,999.7
2016-05-31T01:44:18.779Z,999.6
2016-05-31T01:44:28.607Z,999.7
2016-05-31T01:44:38.763Z,999.7
2016-05-31T01:44:48.763Z,999.7
2016-05-31T01:44:58.766Z,999.7
2016-05-31T01:45:08.626Z,999.7
2016-05-31T01:45:18.797Z,999.7
2016-05-31T01:45:28.626Z,999.7
2016-05-31T01:45:38.797Z,999.7
2016-05-31T01:45:48.797Z,999.7
2016-05-31T01:45:58.815Z,999.6
2016-05-31T01:46:08.815Z,999.7
2016-05-31T01:46:18.815Z,999.7
2016-05-31T01:46:28.815Z,999.7
2016-05-31T01:46:38.831Z,999.7
2016-05-31T01:46:48.674Z,999.7
2016-05-31T01:46:58.677Z,999.7
2016-05-31T01:47:08.849Z,999.7
2016-05-31T01:47:18.849Z,999.7
2016-05-31T01:47:28.849Z,999.7
2016-05-31T01:47:38.865Z,999.7
2016-05-31T01:47:48.849Z,999.7
2016-05-31T01:47:58.884Z,999.7
2016-05-31T01:48:08.712Z,999.7
2016-05-31T01:48:18.884Z,999.7
2016-05-31T01:48:28.884Z,999.7
2016-05-31T01:48:38.884Z,999.7
2016-05-31T01:48:48.884Z,999.7
2016-05-31T01:48:58.902Z,999.7
2016-05-31T01:49:08.902Z,999.6
2016-05-31T01:49:18.918Z,999.7
2016-05-31T01:49:28.762Z,999.6
2016-05-31T01:49:38.918Z,999.7
2016-05-31T01:49:48.918Z,999.7
2016-05-31T01:49:58.764Z,999.7
2016-05-31T01:50:08.935Z,999.7
2016-05-31T01:50:18.935Z,999.7
2016-05-31T01:50:28.935Z,999.7
2016-05-31T01:50:38.795Z,999.7
2016-05-31T01:50:48.951Z,999.7
2016-05-31T01:50:58.954Z,999.7
2016-05-31T01:51:08.798Z,999.7
2016-05-31T01:51:18.985Z,999.7
2016-05-31T01:51:28.813Z,999.7
2016-05-31T01:51:38.970Z,999.7
2016-05-31T01:51:48.829Z,999.7
2016-05-31T01:51:58.832Z,999.7
2016-05-31T01:52:08.988Z,999.7
2016-05-31T01:52:19.004Z,999.7
2016-05-31T01:52:29.363Z,999.7
2016-05-31T01:52:39.145Z,999.7
2016-05-31T01:52:49.020Z,999.7
2016-05-31T01:53:00.584Z,999.7
2016-05-31T01:53:09.443Z,999.7
2016-05-31T01:53:19.365Z,999.7
2016-05-31T01:53:29.506Z,999.7
2016-05-31T01:53:39.037Z,999.7
2016-05-31T01:53:49.037Z,999.7
2016-05-31T01:53:59.056Z,999.7
2016-05-31T01:54:08.900Z,999.7
2016-05-31T01:54:18.915Z,999.7
2016-05-31T01:54:29.071Z,999.7
2016-05-31T01:54:39.056Z,999.7
2016-05-31T01:54:48.915Z,999.7
2016-05-31T01:54:59.106Z,999.7
2016-05-31T01:55:08.934Z,999.7
2016-05-31T01:55:18.934Z,999.7
2016-05-31T01:55:29.090Z,999.7
2016-05-31T01:55:38.778Z,999.7
2016-05-31T01:55:49.106Z,999.7
2016-05-31T01:55:59.109Z,999.7
2016-05-31T01:56:08.952Z,999.7
2016-05-31T01:56:19.124Z,999.7
2016-05-31T01:56:29.109Z,999.7
2016-05-31T01:56:38.968Z,999.7
2016-05-31T01:56:49.140Z,999.7
2016-05-31T01:56:59.142Z,999.7
2016-05-31T01:57:09.142Z,999.7
2016-05-31T01:57:18.986Z,999.7
2016-05-31T01:57:29.001Z,999.7
2016-05-31T01:57:39.001Z,999.7
2016-05-31T01:57:48.861Z,999.7
2016-05-31T01:57:59.161Z,999.7
2016-05-31T01:58:09.020Z,999.7
2016-05-31T01:58:19.020Z,999.7
2016-05-31T01:58:29.176Z,999.7
2016-05-31T01:58:39.192Z,999.7
2016-05-31T01:58:48.895Z,999.7
2016-05-31T01:58:59.194Z,999.7
2016-05-31T01:59:09.209Z,999.7
2016-05-31T01:59:19.209Z,999.7
2016-05-31T01:59:29.209Z,999.7
2016-05-31T01:59:39.209Z,999.6
2016-05-31T01:59:49.069Z,999.7
2016-05-31T01:59:59.244Z,999.6
2016-05-31T02:00:09.228Z,999.7
2016-05-31T02:00:19.087Z,999.7
2016-05-31T02:00:29.244Z,999.7
2016-05-31T02:00:39.244Z,999.7
2016-05-31T02:00:49.259Z,999.7
2016-05-31T02:00:59.294Z,999.7
2016-05-31T02:01:09.106Z,999.7
2016-05-31T02:01:19.262Z,999.7
2016-05-31T02:01:29.122Z,999.7
2016-05-31T02:01:38.965Z,999.7
2016-05-31T02:01:49.278Z,999.7
2016-05-31T02:01:59.297Z,999.7
2016-05-31T02:02:09.140Z,999.7
2016-05-31T02:02:19.312Z,999.7
2016-05-31T02:02:29.297Z,999.7
2016-05-31T02:02:39.156Z,999.7
2016-05-31T02:02:49.328Z,999.7
2016-05-31T02:02:59.314Z,999.7
2016-05-31T02:03:09.158Z,999.7
2016-05-31T02:03:19.330Z,999.7
2016-05-31T02:03:29.330Z,999.7
2016-05-31T02:03:39.330Z,999.7
2016-05-31T02:03:49.205Z,999.8
2016-05-31T02:03:59.192Z,999.7
2016-05-31T02:04:09.348Z,999.7
2016-05-31T02:04:19.364Z,999.7
2016-05-31T02:04:29.364Z,999.7
2016-05-31T02:04:39.380Z,999.7
2016-05-31T02:04:49.208Z,999.7
2016-05-31T02:04:59.225Z,999.7
2016-05-31T02:05:09.397Z,999.7
2016-05-31T02:05:19.241Z,999.7
2016-05-31T02:05:29.225Z,999.7
2016-05-31T02:05:39.397Z,999.7
2016-05-31T02:05:49.241Z,999.7
2016-05-31T02:05:59.261Z,999.7
2016-05-31T02:06:09.261Z,999.7
2016-05-31T02:06:19.261Z,999.7
2016-05-31T02:06:29.417Z,999.7
2016-05-31T02:06:39.276Z,999.7
2016-05-31T02:06:49.433Z,999.7
2016-05-31T02:06:59.294Z,999.7
2016-05-31T02:07:09.294Z,999.7
2016-05-31T02:07:20.372Z,999.7
2016-05-31T02:07:29.560Z,999.7
2016-05-31T02:07:39.513Z,999.7
2016-05-31T02:07:49.388Z,999.7
2016-05-31T02:07:59.358Z,999.7
2016-05-31T02:08:09.983Z,999.7
2016-05-31T02:08:19.843Z,999.7
2016-05-31T02:08:29.546Z,999.7
2016-05-31T02:08:39.327Z,999.7
2016-05-31T02:08:49.499Z,999.7
2016-05-31T02:08:59.486Z,999.7